Time;durP1;ratioP1;P1;durP2;ratioP2;P2;SDS_P1;SDS_P2;PMS_P1;PMS_P2;Temp;Humidity;BMP_temperature;BMP_pressure;BME280_temperature;BME280_humidity;BME280_pressure;Samples;Min_cycle;Max_cycle;Signal;HPM_P1;HPM_P2
2023/08/09 00:01:25;;;;;;;1.33;0.80;;;16.30;99.90;;;;;;5069626;28;20202;-64
2023/08/09 00:03:53;;;;;;;0.60;0.60;;;16.30;99.90;;;;;;5066502;28;20242;-65
2023/08/09 00:06:20;;;;;;;1.07;0.80;;;16.30;99.90;;;;;;5068572;28;20206;-65
2023/08/09 00:08:47;;;;;;;0.60;0.60;;;16.30;99.90;;;;;;5069290;28;20380;-66
2023/08/09 00:11:14;;;;;;;1.33;0.60;;;16.30;99.90;;;;;;5067347;28;20199;-65
2023/08/09 00:13:41;;;;;;;0.70;0.70;;;16.30;99.90;;;;;;5067877;28;20208;-66
2023/08/09 00:16:09;;;;;;;0.60;0.60;;;16.30;99.90;;;;;;5074657;28;20276;-65
2023/08/09 00:18:36;;;;;;;0.70;0.70;;;16.30;99.90;;;;;;5049664;28;20226;-66
2023/08/09 00:21:05;;;;;;;1.63;0.77;;;16.20;99.90;;;;;;5068116;28;20449;-65
2023/08/09 00:23:33;;;;;;;0.70;0.60;;;16.20;99.90;;;;;;5064855;28;20222;-65
2023/08/09 00:26:01;;;;;;;0.63;0.53;;;16.20;99.90;;;;;;5068495;28;20563;-65
2023/08/09 00:28:28;;;;;;;0.50;0.50;;;16.20;99.90;;;;;;5065744;28;20318;-64
2023/08/09 00:30:55;;;;;;;0.40;0.40;;;16.20;99.90;;;;;;5067878;28;20231;-64
2023/08/09 00:33:22;;;;;;;0.60;0.60;;;16.20;99.90;;;;;;5068005;28;20631;-65
2023/08/09 00:35:49;;;;;;;0.73;0.70;;;16.10;99.90;;;;;;5049587;28;20226;-65
2023/08/09 00:38:18;;;;;;;0.50;0.50;;;16.20;99.90;;;;;;5046406;28;20277;-65
2023/08/09 00:40:45;;;;;;;2.00;0.80;;;16.10;99.90;;;;;;5068178;28;20187;-65
2023/08/09 00:43:12;;;;;;;0.60;0.60;;;16.10;99.90;;;;;;5066755;28;20224;-65
2023/08/09 00:45:45;;;;;;;0.57;0.57;;;16.10;99.90;;;;;;5050655;28;20213;-66
2023/08/09 00:48:12;;;;;;;0.50;0.50;;;16.10;99.90;;;;;;5067141;28;20287;-65
2023/08/09 00:50:40;;;;;;;1.23;0.80;;;16.10;99.90;;;;;;5068460;28;20205;-66
2023/08/09 00:53:08;;;;;;;0.60;0.60;;;16.10;99.90;;;;;;5066815;28;20645;-65
2023/08/09 00:55:36;;;;;;;0.87;0.73;;;16.10;99.90;;;;;;5072125;28;20194;-65
2023/08/09 00:58:04;;;;;;;1.10;0.87;;;16.00;99.90;;;;;;5070144;28;20196;-64
2023/08/09 01:00:31;;;;;;;0.50;0.50;;;16.00;99.90;;;;;;5071878;28;20205;-65
2023/08/09 01:02:59;;;;;;;1.17;0.63;;;15.90;99.90;;;;;;5031224;28;1107927;-65
2023/08/09 01:05:33;;;;;;;1.47;0.70;;;16.00;99.90;;;;;;5073398;28;20192;-64
2023/08/09 01:08:08;;;;;;;0.70;0.70;;;16.00;99.90;;;;;;5074156;28;20718;-65
2023/08/09 01:10:44;;;;;;;0.83;0.60;;;16.00;99.90;;;;;;5072718;28;20213;-64
2023/08/09 01:13:14;;;;;;;0.90;0.70;;;16.00;99.90;;;;;;5072069;28;20216;-65
2023/08/09 01:15:44;;;;;;;1.90;0.60;;;16.00;99.90;;;;;;5072036;28;20280;-64
2023/08/09 01:18:12;;;;;;;1.07;0.80;;;16.00;99.90;;;;;;5071914;28;20660;-65
2023/08/09 01:20:40;;;;;;;0.50;0.50;;;16.00;99.90;;;;;;5054794;28;20203;-65
2023/08/09 01:23:16;;;;;;;0.70;0.50;;;16.00;99.90;;;;;;5059531;28;20664;-65
2023/08/09 01:25:46;;;;;;;1.70;0.70;;;15.90;99.90;;;;;;5073376;28;20189;-65
2023/08/09 01:28:15;;;;;;;0.60;0.60;;;15.90;99.90;;;;;;5064727;28;20517;-65
2023/08/09 01:30:45;;;;;;;0.83;0.77;;;15.90;99.90;;;;;;5053984;28;20616;-66
2023/08/09 01:33:12;;;;;;;0.67;0.50;;;15.90;99.90;;;;;;5069703;28;20744;-65
2023/08/09 01:35:45;;;;;;;0.70;0.50;;;15.90;99.90;;;;;;5072614;28;20290;-65
2023/08/09 01:38:19;;;;;;;0.63;0.50;;;15.90;99.90;;;;;;5072306;28;20242;-64
2023/08/09 01:40:48;;;;;;;0.50;0.50;;;15.80;99.90;;;;;;5074902;28;20189;-65
2023/08/09 01:43:17;;;;;;;0.50;0.50;;;15.80;99.90;;;;;;5070215;28;20671;-66
2023/08/09 01:45:44;;;;;;;0.47;0.47;;;15.80;99.90;;;;;;5072920;28;20249;-64
2023/08/09 01:48:11;;;;;;;0.50;0.50;;;15.80;99.90;;;;;;5053398;28;20213;-65
2023/08/09 01:50:40;;;;;;;0.60;0.60;;;15.80;99.90;;;;;;5053626;28;20297;-64
2023/08/09 01:53:07;;;;;;;0.47;0.47;;;15.80;99.90;;;;;;5047755;28;20259;-65
2023/08/09 01:55:34;;;;;;;0.73;0.73;;;15.80;99.90;;;;;;5069339;28;20664;-65
2023/08/09 01:58:03;;;;;;;0.90;0.80;;;15.80;99.90;;;;;;5053656;28;20301;-66
2023/08/09 02:00:30;;;;;;;1.50;0.60;;;15.90;99.90;;;;;;5054669;28;20193;-66
2023/08/09 02:02:58;;;;;;;1.50;0.80;;;15.90;99.90;;;;;;5044767;28;20237;-65
2023/08/09 02:05:25;;;;;;;1.20;0.80;;;15.90;99.90;;;;;;5067287;28;20197;-65
2023/08/09 02:07:52;;;;;;;0.83;0.70;;;15.80;99.90;;;;;;5070837;28;20218;-66
2023/08/09 02:10:19;;;;;;;1.07;0.80;;;15.80;99.90;;;;;;5070439;28;20232;-66
2023/08/09 02:12:48;;;;;;;0.60;0.60;;;15.80;99.90;;;;;;5053270;28;20193;-65
2023/08/09 02:15:18;;;;;;;0.70;0.70;;;15.80;99.90;;;;;;5070123;28;20275;-65
2023/08/09 02:17:46;;;;;;;0.93;0.50;;;15.80;99.90;;;;;;5055175;28;20265;-65
2023/08/09 02:20:13;;;;;;;0.50;0.50;;;15.80;99.90;;;;;;5068923;28;20201;-65
2023/08/09 02:22:41;;;;;;;0.70;0.70;;;15.80;99.90;;;;;;5056332;28;20299;-65
2023/08/09 02:25:10;;;;;;;0.90;0.83;;;15.80;99.90;;;;;;5063791;28;20968;-65
2023/08/09 02:27:37;;;;;;;0.80;0.80;;;15.80;99.90;;;;;;5059021;28;20530;-66
2023/08/09 02:30:07;;;;;;;1.47;0.80;;;15.70;99.90;;;;;;5071687;28;20197;-64
2023/08/09 02:32:36;;;;;;;1.13;0.80;;;15.70;99.90;;;;;;5065173;28;20203;-65
2023/08/09 02:35:05;;;;;;;0.73;0.73;;;15.70;99.90;;;;;;5053681;28;20217;-65
2023/08/09 02:37:32;;;;;;;1.90;1.07;;;15.70;99.90;;;;;;5069698;28;20201;-65
2023/08/09 02:40:00;;;;;;;0.77;0.60;;;15.70;99.90;;;;;;5071435;28;20193;-65
2023/08/09 02:42:27;;;;;;;1.00;0.80;;;15.70;99.90;;;;;;5061057;28;20479;-65
2023/08/09 02:44:55;;;;;;;1.33;0.90;;;15.70;99.90;;;;;;5071852;28;21060;-65
2023/08/09 02:47:23;;;;;;;3.90;0.90;;;15.70;99.90;;;;;;5060094;28;20281;-64
2023/08/09 02:49:51;;;;;;;1.00;0.90;;;15.70;99.90;;;;;;5070090;28;20201;-65
2023/08/09 02:52:19;;;;;;;1.63;0.90;;;15.70;99.90;;;;;;5071410;28;20695;-65
2023/08/09 02:54:47;;;;;;;1.17;1.07;;;15.70;99.90;;;;;;5070133;28;20194;-65
2023/08/09 02:57:14;;;;;;;1.10;1.10;;;15.70;99.90;;;;;;5052795;28;20198;-65
2023/08/09 02:59:41;;;;;;;1.10;1.00;;;15.70;99.90;;;;;;5069714;28;20564;-65
2023/08/09 03:02:09;;;;;;;1.60;1.03;;;15.70;99.90;;;;;;5052179;28;20300;-65
2023/08/09 03:04:37;;;;;;;0.83;0.83;;;15.60;99.90;;;;;;5050656;28;20359;-65
2023/08/09 03:07:05;;;;;;;0.93;0.93;;;15.60;99.90;;;;;;5071157;28;20715;-65
2023/08/09 03:09:34;;;;;;;1.43;1.10;;;15.60;99.90;;;;;;5050377;28;20283;-65
2023/08/09 03:12:02;;;;;;;1.53;0.93;;;15.60;99.90;;;;;;5052574;28;20715;-65
2023/08/09 03:14:29;;;;;;;1.00;0.83;;;15.50;99.90;;;;;;5050945;28;20284;-65
2023/08/09 03:16:57;;;;;;;1.10;1.10;;;15.60;99.90;;;;;;5068393;28;20568;-65
2023/08/09 03:19:24;;;;;;;0.90;0.90;;;15.60;99.90;;;;;;5051168;28;20250;-65
2023/08/09 03:21:51;;;;;;;1.50;1.00;;;15.50;99.90;;;;;;5070356;28;20198;-65
2023/08/09 03:24:19;;;;;;;2.57;1.33;;;15.50;99.90;;;;;;5068975;28;20280;-65
2023/08/09 03:26:49;;;;;;;1.40;1.20;;;15.60;99.90;;;;;;5051235;28;20664;-65
2023/08/09 03:29:18;;;;;;;1.30;0.90;;;15.60;99.90;;;;;;5046909;28;20259;-65
2023/08/09 03:31:46;;;;;;;1.90;1.07;;;15.60;99.90;;;;;;5051768;28;20233;-64
2023/08/09 03:34:15;;;;;;;1.53;0.97;;;15.60;99.90;;;;;;5049778;28;20212;-65
2023/08/09 03:36:44;;;;;;;1.67;1.13;;;15.60;99.90;;;;;;5070889;28;20235;-65
2023/08/09 03:39:12;;;;;;;2.00;1.30;;;15.60;99.90;;;;;;5051481;28;20656;-65
2023/08/09 03:41:42;;;;;;;1.47;1.20;;;15.50;99.90;;;;;;5070615;28;20198;-65
2023/08/09 03:44:10;;;;;;;1.30;1.03;;;15.60;99.90;;;;;;5050949;28;20224;-65
2023/08/09 03:46:38;;;;;;;1.53;1.20;;;15.60;99.90;;;;;;5052211;28;20197;-64
2023/08/09 03:49:05;;;;;;;2.37;1.40;;;15.60;99.90;;;;;;5049702;28;20626;-65
2023/08/09 03:51:33;;;;;;;1.97;1.03;;;15.70;99.90;;;;;;5051859;28;20197;-64
2023/08/09 03:54:01;;;;;;;2.23;1.40;;;15.70;99.90;;;;;;5049978;28;20202;-65
2023/08/09 03:56:28;;;;;;;1.40;1.00;;;15.70;99.90;;;;;;5051923;28;20582;-65
2023/08/09 03:58:59;;;;;;;1.00;1.00;;;15.70;99.90;;;;;;5069593;28;20202;-65
2023/08/09 04:01:26;;;;;;;0.90;0.90;;;15.70;99.90;;;;;;5070401;28;20221;-65
2023/08/09 04:03:57;;;;;;;2.27;1.10;;;15.70;99.90;;;;;;5046027;28;20589;-65
2023/08/09 04:06:24;;;;;;;1.13;1.03;;;15.70;99.90;;;;;;5065987;28;20657;-65
2023/08/09 04:08:51;;;;;;;1.93;1.20;;;15.70;99.90;;;;;;5051494;28;20696;-65
2023/08/09 04:11:19;;;;;;;1.20;1.07;;;15.70;99.90;;;;;;5067810;28;20197;-65
2023/08/09 04:13:46;;;;;;;1.03;1.03;;;15.70;99.90;;;;;;5061985;28;20227;-65
2023/08/09 04:16:14;;;;;;;1.70;1.00;;;15.80;99.90;;;;;;5069475;28;20583;-66
2023/08/09 04:18:41;;;;;;;1.00;0.90;;;15.80;99.90;;;;;;5048192;28;20193;-66
2023/08/09 04:21:08;;;;;;;1.70;1.00;;;15.70;99.90;;;;;;5048575;28;20197;-66
2023/08/09 04:23:35;;;;;;;1.50;1.10;;;15.80;99.90;;;;;;5050650;28;20277;-66
2023/08/09 04:26:03;;;;;;;1.43;1.33;;;15.80;99.90;;;;;;5068119;28;20209;-65
2023/08/09 04:28:30;;;;;;;1.17;1.07;;;15.80;99.90;;;;;;5069058;28;20231;-65
2023/08/09 04:30:57;;;;;;;1.97;0.97;;;15.80;99.90;;;;;;5069486;28;20220;-65
2023/08/09 04:33:26;;;;;;;1.13;1.03;;;15.80;99.90;;;;;;5048802;28;20197;-65
2023/08/09 04:35:54;;;;;;;1.10;1.00;;;15.80;99.90;;;;;;5051900;28;20205;-65
2023/08/09 04:38:21;;;;;;;0.90;0.90;;;15.80;99.90;;;;;;5069387;28;20580;-66
2023/08/09 04:40:48;;;;;;;1.40;1.00;;;15.90;99.90;;;;;;5069044;28;20193;-66
2023/08/09 04:43:15;;;;;;;1.07;0.93;;;15.90;99.90;;;;;;5068171;28;20196;-65
2023/08/09 04:45:42;;;;;;;1.13;1.00;;;15.90;99.90;;;;;;5051149;28;20196;-65
2023/08/09 04:48:16;;;;;;;1.27;1.10;;;15.90;99.90;;;;;;5067509;28;20205;-66
2023/08/09 04:50:45;;;;;;;1.30;1.20;;;15.90;99.90;;;;;;5068995;28;20194;-65
2023/08/09 04:53:12;;;;;;;2.70;1.10;;;16.00;99.90;;;;;;5068395;28;20244;-66
2023/08/09 04:55:39;;;;;;;2.20;0.90;;;16.00;99.90;;;;;;5069036;28;20238;-65
2023/08/09 04:58:06;;;;;;;1.63;1.20;;;16.10;99.90;;;;;;5068756;28;20190;-65
2023/08/09 05:00:33;;;;;;;1.33;1.23;;;16.10;99.90;;;;;;5050814;28;20197;-66
2023/08/09 05:03:00;;;;;;;1.83;1.63;;;16.10;99.90;;;;;;5066267;28;20204;-65
2023/08/09 05:05:29;;;;;;;1.40;1.30;;;16.20;99.90;;;;;;5066491;28;20603;-65
2023/08/09 05:07:57;;;;;;;1.90;1.30;;;16.20;99.90;;;;;;5068877;28;20262;-65
2023/08/09 05:10:24;;;;;;;1.83;1.30;;;16.20;99.90;;;;;;5067329;28;20614;-65
2023/08/09 05:12:51;;;;;;;3.57;1.30;;;16.20;99.90;;;;;;5063803;28;20520;-65
2023/08/09 05:15:18;;;;;;;2.20;1.10;;;16.30;99.90;;;;;;5069015;28;20682;-66
2023/08/09 05:17:45;;;;;;;1.13;1.03;;;16.30;99.90;;;;;;5058190;28;20545;-66
2023/08/09 05:20:12;;;;;;;2.03;1.10;;;16.30;99.90;;;;;;5065401;28;20202;-65
2023/08/09 05:22:40;;;;;;;2.70;1.20;;;16.40;99.90;;;;;;5067931;28;20243;-65
2023/08/09 05:25:09;;;;;;;1.73;1.13;;;16.40;99.90;;;;;;5049952;28;20640;-65
2023/08/09 05:27:36;;;;;;;1.37;0.90;;;16.40;99.90;;;;;;5067235;28;20235;-65
2023/08/09 05:30:04;;;;;;;1.43;1.10;;;16.40;99.90;;;;;;5066983;28;20206;-66
2023/08/09 05:32:31;;;;;;;1.23;1.00;;;16.40;99.90;;;;;;5066313;28;20205;-66
2023/08/09 05:34:58;;;;;;;0.70;0.70;;;16.50;99.90;;;;;;5066923;28;20286;-65
2023/08/09 05:37:25;;;;;;;1.27;0.97;;;16.40;99.90;;;;;;5069904;28;20284;-65
2023/08/09 05:39:52;;;;;;;2.93;1.10;;;16.50;99.90;;;;;;5069333;28;20275;-66
2023/08/09 05:42:20;;;;;;;2.80;1.10;;;16.50;99.90;;;;;;5072917;28;20221;-65
2023/08/09 05:44:48;;;;;;;1.10;1.00;;;16.50;99.90;;;;;;5053874;28;20197;-65
2023/08/09 05:47:15;;;;;;;1.67;0.93;;;16.50;99.90;;;;;;5072028;28;20633;-65
2023/08/09 05:49:42;;;;;;;2.83;1.50;;;16.50;99.90;;;;;;5070926;28;20218;-66
2023/08/09 05:52:09;;;;;;;2.40;1.37;;;16.50;99.90;;;;;;5071650;28;20193;-66
2023/08/09 05:54:36;;;;;;;1.30;1.20;;;16.60;99.90;;;;;;5071472;28;20208;-66
2023/08/09 05:57:03;;;;;;;1.27;1.10;;;16.60;99.90;;;;;;5072054;28;20623;-65
2023/08/09 05:59:32;;;;;;;2.47;1.20;;;16.60;99.90;;;;;;5070694;28;20193;-65
2023/08/09 06:01:59;;;;;;;1.57;0.97;;;16.50;99.90;;;;;;5064036;28;20287;-66
2023/08/09 06:04:30;;;;;;;1.17;0.93;;;16.60;99.90;;;;;;5067465;28;20259;-64
2023/08/09 06:06:57;;;;;;;1.90;0.93;;;16.60;99.90;;;;;;5057869;28;20198;-65
2023/08/09 06:09:24;;;;;;;1.03;0.83;;;16.70;99.90;;;;;;5068100;28;20214;-66
2023/08/09 06:11:51;;;;;;;2.43;0.90;;;16.70;99.90;;;;;;5071083;28;20253;-65
2023/08/09 06:14:18;;;;;;;2.20;1.47;;;16.80;99.90;;;;;;5069488;28;20713;-65
2023/08/09 06:16:48;;;;;;;1.63;1.20;;;16.80;99.90;;;;;;5069660;28;20199;-64
2023/08/09 06:19:15;;;;;;;1.47;1.10;;;16.90;99.90;;;;;;5069505;28;20265;-66
2023/08/09 06:21:43;;;;;;;1.00;1.00;;;16.90;99.90;;;;;;5066342;28;20288;-64
2023/08/09 06:24:10;;;;;;;1.30;0.97;;;16.90;99.90;;;;;;5062400;28;20444;-64
2023/08/09 06:26:37;;;;;;;2.67;1.30;;;17.00;99.90;;;;;;5051583;28;20257;-65
2023/08/09 06:29:05;;;;;;;3.50;1.57;;;17.00;99.90;;;;;;5069550;28;20247;-65
2023/08/09 06:31:32;;;;;;;0.80;0.80;;;17.00;99.90;;;;;;5068875;28;20619;-65
2023/08/09 06:34:01;;;;;;;2.50;1.30;;;17.00;99.90;;;;;;5066604;28;20196;-64
2023/08/09 06:36:28;;;;;;;3.17;1.10;;;17.10;99.90;;;;;;5053164;28;20687;-64
2023/08/09 06:38:55;;;;;;;2.50;1.07;;;17.10;99.90;;;;;;5052350;28;20271;-64
2023/08/09 06:41:22;;;;;;;3.72;1.65;;;17.20;99.90;;;;;;5046915;28;20759;-65
2023/08/09 06:43:49;;;;;;;2.28;1.08;;;17.30;99.90;;;;;;5067661;28;20193;-62
2023/08/09 06:46:16;;;;;;;2.67;1.13;;;17.30;99.90;;;;;;5070030;28;20199;-63
2023/08/09 06:48:43;;;;;;;2.53;1.20;;;17.30;99.90;;;;;;5041728;28;20252;-63
2023/08/09 06:51:11;;;;;;;1.90;1.20;;;17.30;99.90;;;;;;5067382;28;20200;-62
2023/08/09 06:53:38;;;;;;;1.83;1.17;;;17.30;99.90;;;;;;5067545;28;20196;-62
2023/08/09 06:56:05;;;;;;;1.27;1.17;;;17.40;99.90;;;;;;5069103;28;20224;-63
2023/08/09 06:58:33;;;;;;;1.27;1.07;;;17.40;99.90;;;;;;5068638;28;20196;-62
2023/08/09 07:01:02;;;;;;;2.07;1.10;;;17.40;99.90;;;;;;5067668;28;20206;-62
2023/08/09 07:03:29;;;;;;;2.20;1.10;;;17.40;99.90;;;;;;5059067;28;20326;-62
2023/08/09 07:05:56;;;;;;;3.40;1.25;;;17.40;99.90;;;;;;5067418;28;20331;-62
2023/08/09 07:08:25;;;;;;;4.70;1.30;;;17.40;99.90;;;;;;5067626;28;20651;-63
2023/08/09 07:10:52;;;;;;;2.37;1.10;;;17.40;99.90;;;;;;5062314;28;20740;-62
2023/08/09 07:13:19;;;;;;;2.60;1.20;;;17.50;99.90;;;;;;5069028;28;20186;-63
2023/08/09 07:15:46;;;;;;;3.63;1.25;;;17.50;99.90;;;;;;5069159;28;20786;-63
2023/08/09 07:18:13;;;;;;;3.87;1.43;;;17.50;99.90;;;;;;5070034;28;20274;-61
2023/08/09 07:20:40;;;;;;;4.18;1.27;;;17.50;99.90;;;;;;5067778;28;20695;-61
2023/08/09 07:23:07;;;;;;;2.73;1.17;;;17.50;99.90;;;;;;5056158;28;20211;-63
2023/08/09 07:25:36;;;;;;;2.93;1.13;;;17.50;99.90;;;;;;5061437;28;20238;-62
2023/08/09 07:28:03;;;;;;;2.90;1.00;;;17.50;99.90;;;;;;5061923;28;20188;-62
2023/08/09 07:30:30;;;;;;;3.55;1.20;;;17.50;99.90;;;;;;5067187;28;20522;-62
2023/08/09 07:32:57;;;;;;;3.83;1.30;;;17.60;99.90;;;;;;5065611;28;20236;-62
2023/08/09 07:35:24;;;;;;;2.17;1.20;;;17.60;99.90;;;;;;5067808;28;20253;-63
2023/08/09 07:37:51;;;;;;;2.28;1.25;;;17.70;99.90;;;;;;5067962;28;20200;-62
2023/08/09 07:40:18;;;;;;;1.42;1.00;;;17.80;99.90;;;;;;5049498;28;20206;-62
2023/08/09 07:42:47;;;;;;;2.70;1.00;;;17.90;99.90;;;;;;5067257;28;20197;-61
2023/08/09 07:45:14;;;;;;;1.83;1.20;;;17.90;99.90;;;;;;5066676;28;20196;-63
2023/08/09 07:47:42;;;;;;;5.65;1.00;;;18.00;99.90;;;;;;5066008;28;20212;-62
2023/08/09 07:50:10;;;;;;;3.92;1.25;;;18.10;99.90;;;;;;5067925;28;20296;-62
2023/08/09 07:52:37;;;;;;;2.50;1.00;;;18.10;99.90;;;;;;5067842;28;20251;-62
2023/08/09 07:55:05;;;;;;;2.28;0.90;;;18.20;99.90;;;;;;5066536;28;20695;-63
2023/08/09 07:57:33;;;;;;;2.22;1.10;;;18.30;99.90;;;;;;5046285;28;20619;-61
2023/08/09 08:00:05;;;;;;;3.35;1.02;;;18.30;99.90;;;;;;5067047;28;20193;-63
2023/08/09 08:02:39;;;;;;;4.10;1.02;;;18.40;99.90;;;;;;5061615;28;20238;-63
2023/08/09 08:05:08;;;;;;;2.00;0.88;;;18.40;99.90;;;;;;5063276;28;20225;-64
2023/08/09 08:07:35;;;;;;;2.67;1.27;;;18.40;99.90;;;;;;5066967;28;20216;-61
2023/08/09 08:10:02;;;;;;;1.48;0.90;;;18.50;99.90;;;;;;5066137;28;20770;-61
2023/08/09 08:12:29;;;;;;;5.47;0.95;;;18.50;99.90;;;;;;5063056;28;20200;-62
2023/08/09 08:14:57;;;;;;;1.17;0.90;;;18.50;99.90;;;;;;5052344;28;20298;-61
2023/08/09 08:17:25;;;;;;;3.22;0.82;;;18.50;99.90;;;;;;5065963;28;20181;-62
2023/08/09 08:19:53;;;;;;;1.38;0.80;;;18.50;99.90;;;;;;5063232;28;20683;-62
2023/08/09 08:22:20;;;;;;;1.98;0.80;;;18.40;99.90;;;;;;5050530;28;20200;-62
2023/08/09 08:24:47;;;;;;;1.83;1.00;;;18.60;99.90;;;;;;5049483;28;20580;-61
2023/08/09 08:27:14;;;;;;;0.90;0.80;;;18.60;99.90;;;;;;5066213;28;20533;-62
2023/08/09 08:29:41;;;;;;;1.40;0.80;;;18.70;99.90;;;;;;5065620;28;20213;-61
2023/08/09 08:32:09;;;;;;;1.40;0.90;;;18.70;99.90;;;;;;5048889;28;20220;-62
2023/08/09 08:34:38;;;;;;;1.17;1.05;;;18.80;99.90;;;;;;5065571;28;20197;-62
2023/08/09 08:37:06;;;;;;;0.98;0.90;;;18.80;99.90;;;;;;5060900;28;20272;-62
2023/08/09 08:39:36;;;;;;;1.98;1.10;;;18.90;99.90;;;;;;5064648;28;20185;-62
2023/08/09 08:42:03;;;;;;;0.63;0.63;;;19.00;99.90;;;;;;5067455;28;20720;-62
2023/08/09 08:44:30;;;;;;;2.03;0.80;;;19.10;99.90;;;;;;5067170;28;20193;-62
2023/08/09 08:46:59;;;;;;;2.28;1.00;;;19.30;99.90;;;;;;5060920;28;20330;-62
2023/08/09 08:49:31;;;;;;;1.20;0.77;;;19.30;99.60;;;;;;5064357;28;20223;-62
2023/08/09 08:52:01;;;;;;;2.03;1.02;;;19.40;99.50;;;;;;5066726;28;20272;-63
2023/08/09 08:54:28;;;;;;;2.55;0.80;;;19.50;99.10;;;;;;5066303;28;20216;-63
2023/08/09 08:56:55;;;;;;;2.03;0.88;;;19.60;98.70;;;;;;5065295;28;20228;-62
2023/08/09 08:59:23;;;;;;;3.40;1.08;;;19.60;97.90;;;;;;5061936;28;20221;-63
2023/08/09 09:01:51;;;;;;;3.30;0.88;;;19.70;98.00;;;;;;5067293;28;20193;-63
2023/08/09 09:04:18;;;;;;;0.98;0.82;;;19.70;97.50;;;;;;5065578;28;20229;-63
2023/08/09 09:06:45;;;;;;;2.25;1.10;;;19.80;97.40;;;;;;5066176;28;20198;-62
2023/08/09 09:09:14;;;;;;;4.55;1.33;;;19.90;97.50;;;;;;5062150;28;20224;-63
2023/08/09 09:11:43;;;;;;;0.85;0.85;;;20.00;96.60;;;;;;5065745;28;20275;-63
2023/08/09 09:14:12;;;;;;;2.15;0.88;;;20.10;95.90;;;;;;5066461;28;20301;-63
2023/08/09 09:16:39;;;;;;;2.53;1.17;;;20.20;95.80;;;;;;5070281;28;20280;-63
2023/08/09 09:19:06;;;;;;;2.25;0.90;;;20.30;95.60;;;;;;5067789;28;20300;-63
2023/08/09 09:21:34;;;;;;;2.78;0.93;;;20.40;95.50;;;;;;5069433;28;20189;-62
2023/08/09 09:24:05;;;;;;;0.82;0.82;;;20.40;95.10;;;;;;5070156;28;20589;-63
2023/08/09 09:26:34;;;;;;;1.85;1.05;;;20.40;95.00;;;;;;5069286;28;20513;-63
2023/08/09 09:29:01;;;;;;;2.05;1.08;;;20.40;94.80;;;;;;5070752;28;20279;-61
2023/08/09 09:31:35;;;;;;;1.55;1.08;;;20.40;94.60;;;;;;5067746;28;20901;-61
2023/08/09 09:34:02;;;;;;;2.20;0.80;;;20.40;94.50;;;;;;5051095;28;20205;-61
2023/08/09 09:36:31;;;;;;;1.08;1.00;;;20.40;94.30;;;;;;5050374;28;20196;-63
2023/08/09 09:38:59;;;;;;;1.75;1.02;;;20.40;93.60;;;;;;5067784;28;20271;-62
2023/08/09 09:41:26;;;;;;;1.70;0.90;;;20.40;92.40;;;;;;5069984;28;20197;-62
2023/08/09 09:43:54;;;;;;;3.30;1.10;;;20.50;92.10;;;;;;5070852;28;20317;-62
2023/08/09 09:46:23;;;;;;;0.98;0.80;;;20.60;91.90;;;;;;5055235;28;20575;-62
2023/08/09 09:48:59;;;;;;;1.80;0.93;;;20.60;91.90;;;;;;5067768;28;20559;-62
2023/08/09 09:51:28;;;;;;;2.33;0.82;;;20.80;92.00;;;;;;5069800;28;20219;-63
2023/08/09 09:53:55;;;;;;;2.53;1.13;;;20.80;91.50;;;;;;5064363;28;20228;-62
2023/08/09 09:56:22;;;;;;;1.13;0.90;;;20.90;91.00;;;;;;5069705;28;20300;-63
2023/08/09 09:58:50;;;;;;;1.42;0.95;;;20.90;90.50;;;;;;5069192;28;20194;-63
2023/08/09 10:01:22;;;;;;;1.90;0.98;;;21.10;90.70;;;;;;5070412;28;20189;-63
2023/08/09 10:03:51;;;;;;;1.10;0.70;;;21.10;91.00;;;;;;5068707;28;20248;-62
2023/08/09 10:06:22;;;;;;;1.67;0.90;;;21.30;91.10;;;;;;5069738;28;20247;-62
2023/08/09 10:08:52;;;;;;;1.10;0.75;;;21.30;90.20;;;;;;5069253;28;20185;-62
2023/08/09 10:11:22;;;;;;;1.65;0.93;;;21.40;90.10;;;;;;5054230;28;20221;-62
2023/08/09 10:13:50;;;;;;;0.88;0.80;;;21.50;89.80;;;;;;5065761;28;20278;-61
2023/08/09 10:16:23;;;;;;;1.30;0.90;;;21.50;90.00;;;;;;5068728;28;20201;-61
2023/08/09 10:18:57;;;;;;;2.45;0.80;;;21.60;90.00;;;;;;5066300;28;20256;-61
2023/08/09 10:21:25;;;;;;;1.50;0.70;;;21.70;88.00;;;;;;5054122;28;20225;-62
2023/08/09 10:23:57;;;;;;;1.92;0.90;;;21.70;88.50;;;;;;5064735;28;20199;-62
2023/08/09 10:26:29;;;;;;;0.98;0.80;;;21.80;88.40;;;;;;5069532;28;20619;-62
2023/08/09 10:29:02;;;;;;;1.63;0.82;;;22.00;88.30;;;;;;5067840;28;20201;-62
2023/08/09 10:31:54;;;;;;;1.23;1.08;;;22.00;87.30;;;;;;5069317;28;20206;-62
2023/08/09 10:34:34;;;;;;;1.10;0.85;;;21.80;86.40;;;;;;5063710;28;20193;-63
2023/08/09 10:37:02;;;;;;;1.45;1.10;;;21.70;86.10;;;;;;5068732;28;20529;-63
2023/08/09 10:39:30;;;;;;;1.98;0.85;;;21.70;86.30;;;;;;5050460;28;20308;-62
2023/08/09 10:41:59;;;;;;;0.85;0.82;;;21.70;85.30;;;;;;5068946;28;20197;-63
2023/08/09 10:44:38;;;;;;;1.00;0.90;;;21.70;84.60;;;;;;5069883;28;20235;-63
2023/08/09 10:47:09;;;;;;;1.27;0.90;;;21.80;82.70;;;;;;5069030;28;20284;-62
2023/08/09 10:50:00;;;;;;;6.32;1.33;;;21.80;81.40;;;;;;5048209;28;20204;-62
2023/08/09 10:52:35;;;;;;;5.32;0.88;;;21.80;78.40;;;;;;5067651;28;20209;-62
2023/08/09 10:55:30;;;;;;;1.60;0.90;;;21.80;79.10;;;;;;5051372;28;20231;-63
2023/08/09 10:57:59;;;;;;;1.35;1.00;;;21.80;78.90;;;;;;5068053;28;20201;-62
2023/08/09 11:00:35;;;;;;;1.15;0.88;;;21.80;79.40;;;;;;5067847;28;20189;-62
2023/08/09 11:03:05;;;;;;;1.20;0.85;;;21.90;80.10;;;;;;5066083;28;20231;-62
2023/08/09 11:05:32;;;;;;;1.77;0.73;;;21.90;80.00;;;;;;5067104;28;20233;-63
2023/08/09 11:08:09;;;;;;;1.30;1.20;;;22.00;79.50;;;;;;5069772;28;20242;-62
2023/08/09 11:10:37;;;;;;;1.13;0.82;;;22.00;78.60;;;;;;5058535;28;20270;-62
2023/08/09 11:13:06;;;;;;;1.05;0.80;;;22.10;78.40;;;;;;5068330;28;20197;-62
2023/08/09 11:15:34;;;;;;;2.45;0.82;;;22.10;78.40;;;;;;5067688;28;20290;-62
2023/08/09 11:18:02;;;;;;;2.35;1.00;;;22.20;78.80;;;;;;5067366;28;20276;-62
2023/08/09 11:20:30;;;;;;;0.80;0.80;;;22.30;79.10;;;;;;5049544;28;20189;-62
2023/08/09 11:22:59;;;;;;;0.70;0.70;;;22.40;78.40;;;;;;5068887;28;20327;-62
2023/08/09 11:25:28;;;;;;;1.60;0.73;;;22.40;77.20;;;;;;5048281;28;20202;-62
2023/08/09 11:27:57;;;;;;;1.02;0.75;;;22.40;76.00;;;;;;5066041;28;20197;-62
2023/08/09 11:30:24;;;;;;;0.60;0.60;;;22.50;76.20;;;;;;5066793;28;20873;-61
2023/08/09 11:32:58;;;;;;;0.77;0.75;;;22.50;76.00;;;;;;5065734;28;20197;-62
2023/08/09 11:35:31;;;;;;;4.03;0.93;;;22.60;75.90;;;;;;5068028;28;20252;-62
2023/08/09 11:37:58;;;;;;;1.50;0.80;;;22.60;73.90;;;;;;5065477;28;20228;-62
2023/08/09 11:40:25;;;;;;;0.70;0.70;;;22.60;73.90;;;;;;5068256;28;20191;-63
2023/08/09 11:42:57;;;;;;;1.10;0.65;;;22.60;73.30;;;;;;5048466;28;20209;-62
2023/08/09 11:45:24;;;;;;;0.80;0.80;;;22.50;73.80;;;;;;5049918;28;20296;-62
2023/08/09 11:47:52;;;;;;;0.70;0.70;;;22.40;73.60;;;;;;5065805;28;20756;-62
2023/08/09 11:50:24;;;;;;;1.95;0.93;;;22.30;74.40;;;;;;5048755;28;20267;-61
2023/08/09 11:52:55;;;;;;;0.73;0.63;;;22.30;74.50;;;;;;5068082;28;20198;-62
2023/08/09 11:55:25;;;;;;;1.15;0.98;;;22.20;75.10;;;;;;5068225;28;20227;-62
2023/08/09 11:57:52;;;;;;;0.65;0.65;;;22.20;75.30;;;;;;5062700;28;20281;-62
2023/08/09 12:00:19;;;;;;;1.73;1.00;;;22.10;75.40;;;;;;5064848;28;20216;-62
2023/08/09 12:02:49;;;;;;;0.88;0.85;;;22.10;74.40;;;;;;5067122;28;20193;-62
2023/08/09 12:05:16;;;;;;;5.57;1.50;;;22.00;74.30;;;;;;5067351;28;20267;-62
2023/08/09 12:07:44;;;;;;;1.55;0.93;;;22.00;74.10;;;;;;5068043;28;20680;-62
2023/08/09 12:10:20;;;;;;;0.80;0.80;;;22.00;74.60;;;;;;5067467;28;20197;-62
2023/08/09 12:12:47;;;;;;;1.02;0.70;;;22.00;74.80;;;;;;5063085;28;20189;-63
2023/08/09 12:15:15;;;;;;;1.10;0.70;;;22.00;75.00;;;;;;5067604;28;20683;-63
2023/08/09 12:17:42;;;;;;;1.83;0.70;;;22.10;75.20;;;;;;5059023;28;20196;-63
2023/08/09 12:20:10;;;;;;;1.02;0.93;;;22.20;75.40;;;;;;5065156;28;20587;-63
2023/08/09 12:22:38;;;;;;;0.88;0.88;;;22.40;75.30;;;;;;5066024;28;20243;-63
2023/08/09 12:25:06;;;;;;;0.60;0.60;;;22.50;74.30;;;;;;5065982;28;20533;-63
2023/08/09 12:27:35;;;;;;;0.70;0.70;;;22.50;73.60;;;;;;5062578;28;20205;-62
2023/08/09 12:30:02;;;;;;;0.80;0.80;;;22.60;73.20;;;;;;5066240;28;20197;-62
2023/08/09 12:32:29;;;;;;;3.30;1.20;;;22.70;71.90;;;;;;5061554;28;20258;-62
2023/08/09 12:34:56;;;;;;;0.88;0.88;;;22.80;71.70;;;;;;5048895;28;20722;-61
2023/08/09 12:37:24;;;;;;;0.80;0.80;;;22.80;71.50;;;;;;5066033;28;20237;-62
2023/08/09 12:39:52;;;;;;;1.10;0.93;;;22.80;70.30;;;;;;5067692;28;20259;-62
2023/08/09 12:42:19;;;;;;;1.15;0.73;;;22.80;66.90;;;;;;5062392;28;20196;-62
2023/08/09 12:44:47;;;;;;;0.77;0.77;;;22.90;67.00;;;;;;5047738;28;20757;-62
2023/08/09 12:47:14;;;;;;;2.70;0.88;;;22.90;67.00;;;;;;5049887;28;20659;-62
2023/08/09 12:49:41;;;;;;;19.52;3.10;;;23.00;67.10;;;;;;5068407;28;20266;-62
2023/08/09 12:52:08;;;;;;;120.90;20.40;;;23.10;67.00;;;;;;5070610;28;20526;-67